Time;durP1;ratioP1;P1;durP2;ratioP2;P2;SDS_P1;SDS_P2;PMS_P1;PMS_P2;Temp;Humidity;BMP_temperature;BMP_pressure;BME280_temperature;BME280_humidity;BME280_pressure;Samples;Min_cycle;Max_cycle;Signal;HPM_P1;HPM_P2
2022/09/07 00:01:56;;;;;;;5.70;3.03;;;;;;;20.32;69.86;99737.03;4480428;31;33775;-81
2022/09/07 00:04:25;;;;;;;5.90;3.03;;;;;;;20.31;69.77;99730.91;4474579;31;33634;-78
2022/09/07 00:06:54;;;;;;;6.28;3.10;;;;;;;20.27;69.84;99734.63;4480083;31;33998;-80
2022/09/07 00:09:22;;;;;;;4.65;2.80;;;;;;;20.29;69.68;99735.41;4481318;31;33435;-78
2022/09/07 00:11:51;;;;;;;5.00;3.15;;;;;;;20.31;69.34;99735.34;4480693;31;32994;-78
2022/09/07 00:14:20;;;;;;;5.15;3.70;;;;;;;20.27;69.11;99733.78;4479298;31;33947;-77
2022/09/07 00:16:50;;;;;;;5.57;2.70;;;;;;;20.23;69.14;99731.31;4487432;31;34209;-78
2022/09/07 00:19:19;;;;;;;6.00;3.37;;;;;;;20.18;69.62;99729.88;4482420;31;32998;-77
2022/09/07 00:21:47;;;;;;;4.78;2.62;;;;;;;20.09;69.96;99725.06;4482785;31;32650;-80
2022/09/07 00:24:16;;;;;;;5.30;3.35;;;;;;;20.19;69.25;99718.37;4489657;31;34177;-77
2022/09/07 00:26:45;;;;;;;5.18;3.42;;;;;;;20.07;69.86;99717.25;4490442;31;33768;-80
2022/09/07 00:29:13;;;;;;;5.05;2.47;;;;;;;20.03;69.68;99715.72;4489115;31;33809;-78
2022/09/07 00:31:42;;;;;;;6.10;3.22;;;;;;;19.92;69.97;99713.63;4477157;31;33309;-78
2022/09/07 00:34:12;;;;;;;5.25;2.83;;;;;;;19.89;70.05;99710.31;4482350;32;34611;-80
2022/09/07 00:36:41;;;;;;;4.70;2.83;;;;;;;19.96;69.37;99709.06;4475749;31;33178;-77
2022/09/07 00:39:09;;;;;;;5.75;3.03;;;;;;;19.92;69.32;99713.63;4479409;31;33676;-78
2022/09/07 00:41:38;;;;;;;5.00;3.05;;;;;;;19.92;69.24;99710.16;4486457;31;33119;-79
2022/09/07 00:44:45;;;;;;;5.00;2.75;;;;;;;19.80;69.73;99703.72;4485006;31;34606;-80
2022/09/07 00:47:17;;;;;;;5.85;2.95;;;;;;;19.98;68.92;99701.91;4480559;31;35711;-77
2022/09/07 00:49:51;;;;;;;5.57;3.25;;;;;;;19.77;69.68;99706.53;4480527;31;33858;-78
2022/09/07 00:52:20;;;;;;;5.85;3.30;;;;;;;19.86;69.78;99705.19;4491253;31;33012;-79
2022/09/07 00:54:52;;;;;;;5.05;3.22;;;;;;;19.91;69.32;99708.41;4474688;32;34746;-78
2022/09/07 00:57:21;;;;;;;4.62;2.87;;;;;;;19.81;69.78;99710.69;4483589;31;34073;-78
2022/09/07 00:59:51;;;;;;;4.85;2.97;;;;;;;19.74;70.05;99701.38;4489603;31;33521;-77
2022/09/07 01:02:20;;;;;;;4.32;2.78;;;;;;;19.81;69.32;99700.16;4490358;31;33227;-79
2022/09/07 01:04:52;;;;;;;5.22;3.00;;;;;;;19.77;69.34;99702.09;4485492;31;34403;-77
2022/09/07 01:07:20;;;;;;;5.30;2.92;;;;;;;19.62;69.87;99703.69;4490896;31;34708;-78
2022/09/07 01:09:50;;;;;;;5.60;3.22;;;;;;;19.62;69.73;99716.84;4480956;31;33628;-79
2022/09/07 01:12:18;;;;;;;5.03;2.78;;;;;;;19.64;69.62;99700.97;4488206;31;32587;-80
2022/09/07 01:14:51;;;;;;;5.65;3.15;;;;;;;19.52;70.60;99710.34;4480247;31;33777;-79
2022/09/07 01:17:26;;;;;;;4.87;3.00;;;;;;;19.62;70.08;99714.22;4490944;31;33704;-77
2022/09/07 01:20:38;;;;;;;7.12;3.42;;;;;;;19.55;70.64;99706.72;4485166;31;33463;-77
2022/09/07 01:23:28;;;;;;;5.80;3.55;;;;;;;19.63;70.36;99699.28;4485407;31;33978;-79
2022/09/07 01:26:29;;;;;;;7.50;3.70;;;;;;;19.56;70.89;99695.25;4493910;31;34442;-81
2022/09/07 01:29:03;;;;;;;6.07;3.70;;;;;;;19.54;70.92;99697.09;4462043;31;33136;-77
2022/09/07 01:31:39;;;;;;;6.50;3.80;;;;;;;19.50;71.18;99699.06;4482684;31;33604;-80
2022/09/07 01:34:13;;;;;;;5.37;3.17;;;;;;;19.46;71.54;99694.84;4475489;31;34319;-79
2022/09/07 01:36:48;;;;;;;6.43;4.40;;;;;;;19.60;71.09;99691.53;4477193;31;32403;-79
2022/09/07 01:39:19;;;;;;;5.97;3.35;;;;;;;19.59;71.28;99692.47;4481960;31;33498;-77
2022/09/07 01:41:52;;;;;;;6.90;4.12;;;;;;;19.40;72.19;99696.03;4480965;31;33357;-78
2022/09/07 01:44:25;;;;;;;10.73;3.47;;;;;;;19.69;71.16;99684.97;4477927;31;33160;-80
2022/09/07 01:47:00;;;;;;;6.05;3.80;;;;;;;19.82;70.21;99696.59;4477138;31;33473;-78
2022/09/07 01:49:34;;;;;;;7.25;4.00;;;;;;;19.60;71.18;99688.91;4484170;31;33300;-79
2022/09/07 01:52:07;;;;;;;7.30;4.35;;;;;;;19.59;71.20;99684.56;4484642;31;33839;-76
2022/09/07 01:54:40;;;;;;;14.50;5.00;;;;;;;19.72;70.45;99680.44;4477418;31;33730;-78
2022/09/07 01:57:13;;;;;;;6.40;4.07;;;;;;;19.74;70.77;99677.69;4477136;31;33917;-79
2022/09/07 01:59:45;;;;;;;6.53;4.20;;;;;;;19.77;70.59;99677.56;4474266;31;33758;-80
2022/09/07 02:02:17;;;;;;;6.40;3.92;;;;;;;19.61;71.49;99678.28;4484334;31;34613;-78
2022/09/07 02:04:49;;;;;;;8.95;4.97;;;;;;;19.69;71.24;99677.09;4492936;31;33853;-79
2022/09/07 02:07:21;;;;;;;6.45;4.22;;;;;;;19.76;71.17;99681.09;4484570;31;33128;-78
2022/09/07 02:09:59;;;;;;;8.13;4.50;;;;;;;19.70;71.40;99671.75;4479455;31;33643;-78
2022/09/07 02:12:31;;;;;;;7.03;4.30;;;;;;;19.68;71.68;99673.59;4477770;31;34387;-80
2022/09/07 02:15:05;;;;;;;7.25;4.22;;;;;;;19.61;71.91;99675.66;4479452;31;33051;-77
2022/09/07 02:17:37;;;;;;;7.78;4.87;;;;;;;19.68;71.62;99678.03;4492519;31;34729;-77
2022/09/07 02:20:08;;;;;;;7.72;4.20;;;;;;;19.70;71.85;99686.69;4489923;31;34456;-78
2022/09/07 02:22:40;;;;;;;7.55;4.43;;;;;;;19.60;72.07;99673.97;4479484;31;34091;-78
2022/09/07 02:25:10;;;;;;;7.93;4.85;;;;;;;19.65;71.62;99678.16;4475060;31;32821;-79
2022/09/07 02:27:42;;;;;;;5.62;4.07;;;;;;;19.48;72.76;99671.13;4484496;31;34299;-78
2022/09/07 02:30:14;;;;;;;6.47;4.00;;;;;;;19.54;72.42;99668.16;4488576;31;33348;-79
2022/09/07 02:32:43;;;;;;;7.50;4.97;;;;;;;19.89;70.40;99670.81;4482238;32;35284;-76
2022/09/07 02:35:12;;;;;;;6.60;4.60;;;;;;;19.65;71.20;99665.84;4492439;31;33082;-77
2022/09/07 02:37:42;;;;;;;6.93;4.30;;;;;;;19.62;71.29;99664.22;4494160;31;33809;-77
2022/09/07 02:40:13;;;;;;;7.43;4.57;;;;;;;19.65;71.25;99659.72;4493368;31;34467;-78
2022/09/07 02:42:43;;;;;;;7.12;4.40;;;;;;;19.66;70.80;99662.28;4498931;31;34541;-80
2022/09/07 02:45:13;;;;;;;5.97;3.47;;;;;;;19.75;70.37;99650.47;4492516;31;34026;-78
2022/09/07 02:48:08;;;;;;;6.32;3.70;;;;;;;19.66;70.64;99651.75;4482634;31;33714;-78
2022/09/07 02:51:01;;;;;;;7.20;4.12;;;;;;;19.78;69.72;99659.03;4485906;31;34760;-77
2022/09/07 02:53:55;;;;;;;5.50;3.25;;;;;;;19.70;70.02;99652.47;4492289;31;34229;-78
2022/09/07 02:56:34;;;;;;;7.15;3.87;;;;;;;19.71;70.34;99647.12;4479987;31;33154;-79
2022/09/07 02:59:09;;;;;;;10.18;3.83;;;;;;;19.63;70.71;99649.28;4486807;31;34670;-78
2022/09/07 03:01:45;;;;;;;5.87;4.00;;;;;;;19.65;70.69;99639.53;4484648;31;35670;-80
2022/09/07 03:04:16;;;;;;;8.35;4.65;;;;;;;19.69;70.49;99656.91;4492336;31;33521;-77
2022/09/07 03:06:48;;;;;;;6.50;3.67;;;;;;;19.53;71.35;99654.16;4489680;31;33832;-77
2022/09/07 03:09:19;;;;;;;7.72;4.32;;;;;;;19.70;70.74;99658.59;4482016;31;32135;-79
2022/09/07 03:11:48;;;;;;;6.15;3.67;;;;;;;19.64;71.34;99650.13;4481242;31;33574;-78
2022/09/07 03:14:19;;;;;;;7.40;4.70;;;;;;;19.67;71.43;99649.97;4485107;31;33892;-78
2022/09/07 03:16:51;;;;;;;7.17;3.80;;;;;;;19.78;71.09;99645.03;4484202;31;33117;-79
2022/09/07 03:19:20;;;;;;;7.87;5.10;;;;;;;19.74;71.47;99643.47;4495912;31;33657;-81
2022/09/07 03:21:48;;;;;;;6.78;3.87;;;;;;;19.79;71.04;99639.69;4483441;31;34658;-79
2022/09/07 03:24:17;;;;;;;8.55;4.32;;;;;;;19.72;71.29;99648.84;4488070;31;34594;-79
2022/09/07 03:26:48;;;;;;;6.90;4.20;;;;;;;19.75;71.06;99642.56;4491702;31;34086;-78
2022/09/07 03:29:17;;;;;;;7.87;4.53;;;;;;;19.52;71.77;99649.84;4483734;31;33386;-80
2022/09/07 03:31:46;;;;;;;6.20;4.00;;;;;;;19.63;71.43;99646.66;4482378;31;33557;-80
2022/09/07 03:34:18;;;;;;;6.57;4.15;;;;;;;19.49;71.66;99639.44;4482103;31;33402;-80
2022/09/07 03:36:47;;;;;;;6.87;4.10;;;;;;;19.57;71.36;99636.41;4489590;31;33185;-78
2022/09/07 03:39:19;;;;;;;7.95;4.62;;;;;;;19.82;69.82;99646.59;4484719;31;33987;-78
2022/09/07 03:41:48;;;;;;;9.80;4.90;;;;;;;19.64;70.35;99644.84;4483082;31;34749;-78
2022/09/07 03:44:17;;;;;;;6.47;3.87;;;;;;;19.87;68.76;99649.81;4488088;31;33936;-77
2022/09/07 03:46:46;;;;;;;5.60;3.72;;;;;;;19.59;69.86;99650.34;4487260;31;33822;-79
2022/09/07 03:49:16;;;;;;;8.07;4.62;;;;;;;19.72;69.37;99654.09;4476804;31;33572;-81
2022/09/07 03:51:45;;;;;;;8.02;4.55;;;;;;;19.51;70.04;99658.66;4478704;31;33308;-78
2022/09/07 03:54:13;;;;;;;9.25;4.78;;;;;;;19.49;69.88;99663.13;4482749;31;33626;-77
2022/09/07 03:56:42;;;;;;;8.48;5.35;;;;;;;19.62;69.46;99661.59;4482521;31;32852;-77
2022/09/07 03:59:11;;;;;;;9.75;5.55;;;;;;;19.43;69.99;99662.59;4476881;31;34229;-80
2022/09/07 04:01:40;;;;;;;7.60;4.53;;;;;;;19.56;69.44;99664.50;4483222;31;33520;-78
2022/09/07 04:04:09;;;;;;;11.35;5.22;;;;;;;19.44;69.91;99661.66;4477049;31;35123;-80
2022/09/07 04:06:39;;;;;;;8.45;5.45;;;;;;;19.51;69.71;99655.16;4481999;31;34067;-80
2022/09/07 04:09:15;;;;;;;9.02;5.53;;;;;;;19.43;69.77;99658.19;4478325;31;34092;-77
2022/09/07 04:11:43;;;;;;;8.52;4.97;;;;;;;19.48;69.86;99661.44;4480874;31;34836;-78
2022/09/07 04:14:12;;;;;;;8.32;4.68;;;;;;;19.43;70.12;99670.50;4491211;31;33770;-78
2022/09/07 04:16:41;;;;;;;6.82;3.97;;;;;;;19.38;70.18;99670.72;4481399;31;33115;-78
2022/09/07 04:19:10;;;;;;;9.80;4.25;;;;;;;19.19;71.09;99673.41;4482684;31;33504;-78
2022/09/07 04:21:43;;;;;;;7.65;4.20;;;;;;;19.43;70.08;99667.88;4475363;31;33665;-79
2022/09/07 04:24:12;;;;;;;9.30;4.82;;;;;;;19.38;69.99;99666.31;4481008;31;33430;-78
2022/09/07 04:26:42;;;;;;;7.03;4.35;;;;;;;19.24;70.34;99676.66;4483887;31;33379;-79
2022/09/07 04:29:11;;;;;;;9.25;5.25;;;;;;;19.31;70.37;99672.81;4487079;31;33069;-76
2022/09/07 04:31:40;;;;;;;8.23;4.75;;;;;;;19.32;70.03;99671.84;4490256;31;34379;-78
2022/09/07 04:34:10;;;;;;;6.95;4.57;;;;;;;19.27;70.35;99673.87;4489454;31;34339;-80
2022/09/07 04:36:40;;;;;;;7.20;4.10;;;;;;;19.44;69.73;99678.28;4476670;31;33828;-78
2022/09/07 04:39:10;;;;;;;9.87;5.83;;;;;;;19.43;69.96;99688.91;4485005;31;32987;-77
2022/09/07 04:41:38;;;;;;;8.25;4.70;;;;;;;19.32;70.35;99692.06;4494545;31;33553;-77
2022/09/07 04:44:07;;;;;;;7.53;4.35;;;;;;;19.36;70.29;99686.56;4479205;31;33803;-77
2022/09/07 04:46:36;;;;;;;8.85;4.85;;;;;;;19.32;70.70;99702.56;4475770;31;34037;-79
2022/09/07 04:49:07;;;;;;;10.15;5.78;;;;;;;19.44;70.12;99695.87;4477278;31;33795;-78
2022/09/07 04:51:36;;;;;;;8.57;5.32;;;;;;;19.30;71.21;99691.28;4484007;31;34942;-76
2022/09/07 04:54:06;;;;;;;9.27;5.47;;;;;;;19.45;70.43;99694.91;4485086;31;34469;-78
2022/09/07 04:56:35;;;;;;;9.05;5.70;;;;;;;19.43;70.78;99697.66;4492057;31;33040;-78
2022/09/07 04:59:04;;;;;;;7.78;4.55;;;;;;;19.35;70.98;99692.78;4477184;31;34598;-78
2022/09/07 05:01:33;;;;;;;9.50;4.45;;;;;;;19.50;70.43;99701.69;4479848;31;33640;-78
2022/09/07 05:04:03;;;;;;;8.15;4.80;;;;;;;19.47;70.74;99690.44;4490391;31;34696;-79
2022/09/07 05:06:32;;;;;;;7.95;4.20;;;;;;;19.40;71.13;99687.25;4479575;31;33396;-79
2022/09/07 05:09:01;;;;;;;7.07;4.28;;;;;;;19.57;70.56;99682.03;4487715;31;33887;-78
2022/09/07 05:11:31;;;;;;;6.82;4.47;;;;;;;19.57;70.62;99689.03;4490001;31;34434;-77
2022/09/07 05:14:01;;;;;;;7.75;4.85;;;;;;;19.60;70.93;99691.53;4487673;31;35215;-77
2022/09/07 05:16:31;;;;;;;8.00;4.72;;;;;;;19.53;70.75;99696.25;4485899;31;32491;-78
2022/09/07 05:19:01;;;;;;;7.68;4.47;;;;;;;19.71;69.88;99696.28;4490852;31;33121;-78
2022/09/07 05:21:31;;;;;;;8.73;4.10;;;;;;;19.77;69.98;99698.63;4486286;31;33972;-78
2022/09/07 05:24:00;;;;;;;6.43;3.92;;;;;;;19.80;70.09;99699.31;4491847;31;34324;-79
2022/09/07 05:26:34;;;;;;;7.57;4.25;;;;;;;19.74;70.33;99704.03;4483147;31;33979;-79
2022/09/07 05:29:04;;;;;;;6.72;3.95;;;;;;;19.77;70.26;99707.38;4488358;31;33608;-78
2022/09/07 05:31:53;;;;;;;7.97;4.18;;;;;;;19.92;69.78;99705.72;4481198;31;33840;-79
2022/09/07 05:34:22;;;;;;;5.95;3.87;;;;;;;19.79;70.41;99708.12;4490821;31;33484;-78
2022/09/07 05:37:00;;;;;;;6.32;3.72;;;;;;;19.97;70.03;99711.59;4489515;31;33860;-79
2022/09/07 05:39:29;;;;;;;7.10;4.10;;;;;;;19.88;70.10;99712.06;4488980;31;34638;-77
2022/09/07 05:41:59;;;;;;;7.30;3.42;;;;;;;20.12;69.33;99714.38;4486214;31;33761;-80
2022/09/07 05:44:27;;;;;;;8.57;3.72;;;;;;;20.08;69.69;99713.69;4482130;31;34767;-80
2022/09/07 05:47:13;;;;;;;6.93;3.95;;;;;;;20.14;68.93;99712.50;4483394;31;32911;-78
2022/09/07 05:49:42;;;;;;;5.85;3.47;;;;;;;20.02;69.27;99714.00;4488199;31;34498;-78
2022/09/07 05:52:11;;;;;;;4.95;2.95;;;;;;;20.27;67.81;99713.56;4499389;31;33990;-79
2022/09/07 05:54:40;;;;;;;7.45;3.55;;;;;;;20.12;68.34;99711.72;4492951;31;34302;-80
2022/09/07 05:57:12;;;;;;;5.60;3.10;;;;;;;20.34;67.41;99720.19;4493831;31;33485;-77
2022/09/07 05:59:41;;;;;;;5.37;3.03;;;;;;;20.34;67.89;99720.19;4493032;31;33714;-79
2022/09/07 06:02:11;;;;;;;5.35;3.05;;;;;;;20.41;67.78;99728.63;4490786;31;34411;-78
2022/09/07 06:04:40;;;;;;;5.90;3.28;;;;;;;20.52;67.08;99725.44;4484353;31;33478;-79
2022/09/07 06:07:11;;;;;;;6.57;3.62;;;;;;;20.46;66.95;99719.56;4485968;31;33789;-79
2022/09/07 06:09:55;;;;;;;6.10;3.92;;;;;;;20.37;67.07;99720.06;4477563;31;34388;-80
2022/09/07 06:12:46;;;;;;;7.03;3.80;;;;;;;20.48;66.54;99729.16;4479422;31;34839;-79
2022/09/07 06:15:17;;;;;;;6.47;3.42;;;;;;;20.37;66.97;99725.31;4482254;31;34567;-78
2022/09/07 06:17:46;;;;;;;5.70;2.87;;;;;;;20.51;65.71;99718.47;4485592;31;33889;-80
2022/09/07 06:20:15;;;;;;;5.18;3.12;;;;;;;20.47;66.04;99730.97;4477367;32;34397;-80
2022/09/07 06:22:44;;;;;;;6.15;3.10;;;;;;;20.78;65.02;99726.69;4481164;31;34048;-78
2022/09/07 06:25:13;;;;;;;7.60;3.60;;;;;;;20.62;65.72;99735.44;4479925;31;33850;-79
2022/09/07 06:27:41;;;;;;;6.10;3.70;;;;;;;20.81;65.46;99731.81;4483349;32;32917;-79
2022/09/07 06:30:12;;;;;;;6.07;3.58;;;;;;;20.82;65.08;99722.94;4478941;32;33711;-79
2022/09/07 06:32:41;;;;;;;7.18;3.40;;;;;;;20.78;65.66;99717.00;4477854;32;33709;-81
2022/09/07 06:35:15;;;;;;;7.50;4.18;;;;;;;20.94;65.78;99724.06;4477697;32;34644;-80
2022/09/07 06:37:44;;;;;;;7.15;3.60;;;;;;;20.96;65.38;99722.19;4486643;31;34230;-79
2022/09/07 06:40:12;;;;;;;6.85;3.70;;;;;;;21.01;65.01;99720.16;4479082;31;33506;-79
2022/09/07 06:42:41;;;;;;;6.70;3.37;;;;;;;21.14;64.48;99712.37;4476075;32;32186;-78
2022/09/07 06:45:12;;;;;;;6.68;3.78;;;;;;;21.05;65.15;99724.31;4479758;31;34337;-81
2022/09/07 06:47:40;;;;;;;6.57;3.27;;;;;;;21.18;63.60;99717.41;4478483;31;33888;-78
2022/09/07 06:50:11;;;;;;;6.75;3.53;;;;;;;21.21;63.82;99722.50;4483031;32;33445;-81
2022/09/07 06:52:39;;;;;;;6.47;3.40;;;;;;;21.12;63.65;99722.16;4477552;32;34017;-81
2022/09/07 06:55:28;;;;;;;6.85;3.67;;;;;;;21.07;63.78;99719.81;4477817;32;33518;-80
2022/09/07 06:57:57;;;;;;;6.47;3.58;;;;;;;21.34;63.38;99719.19;4479390;32;33401;-80
2022/09/07 07:00:27;;;;;;;7.65;4.25;;;;;;;21.17;64.03;99712.22;4490444;31;34299;-77
2022/09/07 07:02:56;;;;;;;7.85;3.72;;;;;;;21.22;64.27;99708.38;4498709;31;33147;-77
2022/09/07 07:05:24;;;;;;;6.62;3.47;;;;;;;21.27;63.55;99711.59;4490833;31;34132;-78
2022/09/07 07:07:55;;;;;;;6.43;3.67;;;;;;;21.39;63.96;99718.00;4477221;31;33903;-81
2022/09/07 07:10:24;;;;;;;4.45;2.75;;;;;;;21.60;62.34;99718.56;4477527;32;34145;-79
2022/09/07 07:12:55;;;;;;;7.30;4.45;;;;;;;21.64;62.33;99719.22;4482905;32;33942;-77
2022/09/07 07:15:28;;;;;;;8.73;3.25;;;;;;;21.51;62.80;99719.09;4477300;32;33605;-77
2022/09/07 07:17:57;;;;;;;7.70;3.97;;;;;;;21.73;62.32;99719.53;4477268;32;32855;-78
2022/09/07 07:20:45;;;;;;;5.97;3.05;;;;;;;21.70;62.48;99725.00;4477399;32;33688;-78
2022/09/07 07:23:14;;;;;;;6.37;3.42;;;;;;;21.70;61.87;99732.06;4476995;31;33639;-79
2022/09/07 07:25:43;;;;;;;5.93;3.47;;;;;;;21.69;63.12;99739.12;4490882;31;34434;-79
2022/09/07 07:28:12;;;;;;;7.03;3.28;;;;;;;21.99;61.82;99735.63;4479425;31;33478;-81
2022/09/07 07:31:03;;;;;;;6.85;3.78;;;;;;;22.09;61.97;99725.38;4492358;31;33860;-80
2022/09/07 07:33:38;;;;;;;11.00;3.60;;;;;;;21.89;61.14;99718.63;4493067;31;34719;-82
2022/09/07 07:36:09;;;;;;;6.75;3.33;;;;;;;22.08;61.59;99726.28;4492991;31;33850;-77
2022/09/07 07:38:37;;;;;;;8.43;3.85;;;;;;;22.08;61.55;99727.13;4498452;31;33934;-80
2022/09/07 07:41:30;;;;;;;5.90;3.17;;;;;;;22.28;60.96;99727.78;4498532;31;34253;-80
2022/09/07 07:44:19;;;;;;;6.00;3.50;;;;;;;22.41;60.36;99731.34;4481080;31;33611;-79
2022/09/07 07:46:49;;;;;;;6.12;3.50;;;;;;;22.31;60.78;99730.22;4477314;32;33690;-78
2022/09/07 07:49:19;;;;;;;8.43;3.53;;;;;;;22.52;59.71;99734.19;4477126;32;33946;-77
2022/09/07 07:51:47;;;;;;;5.78;3.22;;;;;;;22.47;59.88;99731.00;4479977;32;34320;-81
2022/09/07 07:54:36;;;;;;;8.18;3.58;;;;;;;22.51;60.19;99731.63;4482880;32;34737;-79
2022/09/07 07:57:05;;;;;;;5.75;3.05;;;;;;;22.52;60.28;99728.91;4477144;32;35063;-78
2022/09/07 07:59:34;;;;;;;4.82;3.20;;;;;;;22.73;58.98;99724.03;4476511;32;33982;-79
2022/09/07 08:02:05;;;;;;;8.32;4.22;;;;;;;22.75;59.58;99722.16;4483808;31;33903;-78
2022/09/07 08:04:35;;;;;;;8.18;3.55;;;;;;;22.74;59.28;99723.12;4490077;31;33611;-80
2022/09/07 08:07:04;;;;;;;6.22;3.62;;;;;;;22.89;58.91;99720.44;4477181;32;33779;-79
2022/09/07 08:09:40;;;;;;;5.75;3.12;;;;;;;23.01;58.31;99725.00;4476989;32;33015;-81
2022/09/07 08:12:10;;;;;;;6.40;3.33;;;;;;;23.04;59.56;99723.94;4477589;31;33345;-81
2022/09/07 08:14:39;;;;;;;6.23;3.47;;;;;;;23.11;58.62;99733.19;4485330;31;33423;-78
2022/09/07 08:17:12;;;;;;;5.77;3.27;;;;;;;23.13;58.60;99731.28;4498054;31;33245;-81
2022/09/07 08:19:41;;;;;;;7.20;3.90;;;;;;;23.28;57.41;99727.63;4492529;31;33860;-80
2022/09/07 08:22:10;;;;;;;5.95;3.12;;;;;;;23.19;57.04;99722.94;4492754;31;33462;-78
2022/09/07 08:24:39;;;;;;;5.35;2.95;;;;;;;23.40;57.10;99726.84;4492355;31;33783;-78
2022/09/07 08:27:08;;;;;;;3.70;2.17;;;;;;;23.52;56.85;99719.87;4496758;31;33801;-80
2022/09/07 08:29:36;;;;;;;5.12;2.67;;;;;;;23.57;56.55;99709.81;4497531;31;32909;-78
2022/09/07 08:32:06;;;;;;;5.45;2.95;;;;;;;23.65;56.69;99714.59;4491268;31;32033;-77
2022/09/07 08:34:38;;;;;;;5.32;2.97;;;;;;;23.68;56.21;99719.72;4492339;31;33539;-78
2022/09/07 08:37:06;;;;;;;7.57;3.95;;;;;;;23.76;55.95;99709.47;4492004;31;33508;-78
2022/09/07 08:39:35;;;;;;;4.78;2.85;;;;;;;23.66;57.32;99716.31;4487517;31;34710;-77
2022/09/07 08:42:21;;;;;;;5.68;3.08;;;;;;;23.86;55.97;99712.34;4476525;32;34496;-80
2022/09/07 08:44:52;;;;;;;5.47;2.60;;;;;;;23.97;55.74;99709.81;4476513;32;33657;-80
2022/09/07 08:47:27;;;;;;;4.85;2.67;;;;;;;24.09;55.67;99718.75;4478551;31;33035;-79
2022/09/07 08:50:03;;;;;;;4.47;2.72;;;;;;;24.12;55.38;99721.16;4492384;31;33239;-77
2022/09/07 08:52:40;;;;;;;4.80;2.40;;;;;;;24.21;53.82;99714.38;4497855;31;33722;-80
2022/09/07 08:55:12;;;;;;;4.97;2.45;;;;;;;24.19;54.52;99714.50;4492306;31;33665;-77
2022/09/07 08:57:45;;;;;;;4.35;2.55;;;;;;;24.44;54.39;99718.06;4491999;31;33984;-79
2022/09/07 09:00:16;;;;;;;5.00;2.42;;;;;;;24.41;53.14;99708.53;4492096;31;33322;-81
2022/09/07 09:02:45;;;;;;;6.12;3.22;;;;;;;24.36;53.59;99704.53;4492542;31;33187;-80
2022/09/07 09:05:43;;;;;;;6.07;3.00;;;;;;;24.57;52.62;99702.16;4491429;31;34061;-80
2022/09/07 09:08:22;;;;;;;7.07;2.85;;;;;;;24.56;52.81;99692.53;4482742;31;33909;-80
2022/09/07 09:10:57;;;;;;;6.60;2.37;;;;;;;24.55;52.93;99697.00;4479174;31;33115;-78
2022/09/07 09:13:36;;;;;;;5.37;2.58;;;;;;;24.68;52.88;99702.25;4475787;31;34334;-79
2022/09/07 09:16:06;;;;;;;6.37;3.00;;;;;;;24.76;52.42;99707.00;4489332;31;33432;-81
2022/09/07 09:18:45;;;;;;;4.85;2.80;;;;;;;24.77;52.06;99706.91;4487404;31;33007;-82
2022/09/07 09:21:17;;;;;;;5.20;2.80;;;;;;;25.03;51.66;99706.81;4488466;31;33965;-78
2022/09/07 09:23:49;;;;;;;5.40;3.20;;;;;;;25.03;51.77;99698.84;4482444;31;33357;-81
2022/09/07 09:26:23;;;;;;;5.55;2.70;;;;;;;25.21;52.42;99704.66;4476010;31;33625;-80
2022/09/07 09:28:51;;;;;;;5.62;2.87;;;;;;;25.25;52.02;99706.09;4480547;31;33079;-79
2022/09/07 09:31:22;;;;;;;5.57;3.22;;;;;;;25.42;52.10;99695.09;4484802;31;32899;-81
2022/09/07 09:34:08;;;;;;;6.55;3.28;;;;;;;25.48;51.62;99691.97;4476025;31;33621;-80
2022/09/07 09:36:43;;;;;;;5.03;2.78;;;;;;;25.68;49.81;99693.09;4481566;31;32830;-81
2022/09/07 09:39:30;;;;;;;7.45;4.03;;;;;;;25.63;51.57;99686.47;4479581;31;33491;-82
2022/09/07 09:42:13;;;;;;;5.65;2.75;;;;;;;25.75;50.16;99685.53;4479069;31;33091;-80
2022/09/07 09:44:42;;;;;;;4.65;2.58;;;;;;;25.81;50.34;99690.38;4478738;31;33321;-80
2022/09/07 09:47:25;;;;;;;4.57;2.47;;;;;;;25.95;48.81;99684.88;4489125;31;34672;-79
2022/09/07 09:49:59;;;;;;;4.35;2.67;;;;;;;25.97;49.02;99690.06;4490714;31;34237;-78
2022/09/07 09:52:33;;;;;;;5.37;2.80;;;;;;;26.13;49.58;99679.94;4488692;31;33915;-79
2022/09/07 09:55:23;;;;;;;7.03;3.08;;;;;;;26.33;49.02;99685.50;4484169;31;32782;-81
2022/09/07 09:58:04;;;;;;;4.80;2.60;;;;;;;26.33;47.26;99681.03;4488072;31;33776;-79
2022/09/07 10:01:00;;;;;;;6.15;2.58;;;;;;;26.44;47.82;99679.34;4482458;31;33283;-78
2022/09/07 10:03:49;;;;;;;5.30;2.97;;;;;;;26.57;48.73;99677.41;4481403;31;34093;-82
2022/09/07 10:06:21;;;;;;;4.47;2.67;;;;;;;26.59;48.67;99675.50;4486765;31;34182;-79
2022/09/07 10:08:57;;;;;;;5.47;2.50;;;;;;;26.71;48.65;99673.66;4484449;31;34139;-79
2022/09/07 10:11:43;;;;;;;6.20;3.10;;;;;;;26.80;47.39;99678.25;4480844;31;34324;-79
2022/09/07 10:14:36;;;;;;;4.50;2.20;;;;;;;26.75;47.83;99667.97;4480919;31;32976;-81
2022/09/07 10:17:12;;;;;;;5.95;2.85;;;;;;;27.04;46.67;99664.75;4482907;31;33354;-80
2022/09/07 10:19:42;;;;;;;5.18;2.67;;;;;;;27.11;47.57;99657.94;4479913;31;34090;-80
2022/09/07 10:22:24;;;;;;;5.43;3.20;;;;;;;27.23;46.27;99664.06;4489086;31;33903;-81
2022/09/07 10:24:54;;;;;;;5.82;3.00;;;;;;;27.22;46.74;99657.06;4476474;32;33438;-80
2022/09/07 10:27:32;;;;;;;4.82;2.60;;;;;;;27.20;45.93;99654.53;4476313;32;34380;-79
2022/09/07 10:30:01;;;;;;;6.45;3.40;;;;;;;27.40;46.32;99655.53;4476369;32;33997;-82
2022/09/07 10:32:50;;;;;;;4.15;2.22;;;;;;;27.70;45.04;99655.75;4480501;31;33641;-81
2022/09/07 10:35:24;;;;;;;4.22;2.65;;;;;;;27.61;46.77;99660.88;4482798;31;33725;-78
2022/09/07 10:37:58;;;;;;;5.82;2.55;;;;;;;27.64;47.47;99657.09;4481486;31;33557;-81
2022/09/07 10:40:34;;;;;;;5.65;2.15;;;;;;;27.76;44.66;99657.87;4476636;32;33609;-79
2022/09/07 10:43:22;;;;;;;4.00;2.10;;;;;;;27.87;45.74;99653.34;4476484;31;33761;-80
2022/09/07 10:46:16;;;;;;;4.00;2.15;;;;;;;27.86;45.52;99650.84;4476313;31;34167;-81
2022/09/07 10:49:21;;;;;;;4.90;2.78;;;;;;;27.86;41.81;99648.16;4484269;31;33547;-79
2022/09/07 10:51:58;;;;;;;5.28;2.97;;;;;;;27.79;44.14;99649.63;4483239;31;34461;-82
2022/09/07 10:54:35;;;;;;;4.03;2.17;;;;;;;28.03;43.37;99644.03;4482064;31;34388;-79
2022/09/07 10:57:23;;;;;;;3.72;2.35;;;;;;;28.00;43.38;99652.28;4478622;31;33574;-79
2022/09/07 10:59:56;;;;;;;4.78;2.85;;;;;;;28.08;44.00;99644.47;4488220;31;34653;-82
2022/09/07 11:02:54;;;;;;;6.57;4.07;;;;;;;28.21;45.10;99649.59;4488740;31;34787;-79
2022/09/07 11:05:53;;;;;;;6.60;3.83;;;;;;;28.28;45.02;99642.72;4476248;32;33295;-81
2022/09/07 11:08:33;;;;;;;5.62;3.67;;;;;;;28.37;43.18;99649.09;4475675;32;33069;-80
2022/09/07 11:11:26;;;;;;;9.25;4.97;;;;;;;28.41;44.59;99643.31;4476007;32;33472;-81
2022/09/07 11:14:19;;;;;;;7.55;5.30;;;;;;;28.60;43.43;99647.06;4483727;31;34549;-79
2022/09/07 11:16:52;;;;;;;7.32;4.57;;;;;;;28.65;42.46;99642.16;4489070;31;34127;-81
2022/09/07 11:19:22;;;;;;;6.85;5.03;;;;;;;28.70;42.21;99638.09;4486231;31;32629;-79
2022/09/07 11:22:15;;;;;;;7.40;4.62;;;;;;;28.78;43.57;99633.88;4476923;32;33406;-79
2022/09/07 11:24:49;;;;;;;7.25;4.70;;;;;;;28.71;42.98;99631.78;4476792;32;33999;-80
2022/09/07 11:27:40;;;;;;;8.38;5.32;;;;;;;28.81;44.44;99629.13;4485800;31;33557;-80
2022/09/07 11:30:18;;;;;;;7.90;5.43;;;;;;;28.68;43.37;99633.88;4482052;32;33756;-80
2022/09/07 11:32:53;;;;;;;7.80;5.43;;;;;;;28.69;44.06;99630.22;4476507;32;33750;-81
2022/09/07 11:35:31;;;;;;;9.00;5.82;;;;;;;28.69;43.24;99627.56;4476857;32;33600;-82
2022/09/07 11:38:02;;;;;;;8.98;6.05;;;;;;;28.72;41.87;99628.13;4482578;31;33824;-78
2022/09/07 11:40:34;;;;;;;11.05;6.43;;;;;;;28.91;41.15;99627.31;4485143;31;33272;-79
2022/09/07 11:43:09;;;;;;;7.78;5.75;;;;;;;28.97;42.40;99625.91;4487062;31;33548;-80
2022/09/07 11:45:44;;;;;;;9.35;6.80;;;;;;;28.99;41.49;99618.59;4477522;32;33833;-79
2022/09/07 11:48:17;;;;;;;8.05;5.32;;;;;;;29.19;42.00;99616.81;4436393;32;1308254;-79
2022/09/07 11:50:51;;;;;;;7.60;4.82;;;;;;;29.26;41.57;99623.28;4483548;31;34114;-79
2022/09/07 11:53:22;;;;;;;8.02;5.25;;;;;;;29.37;43.53;99629.44;4487094;31;33558;-80
2022/09/07 11:55:56;;;;;;;8.48;5.30;;;;;;;29.51;42.10;99613.81;4482351;31;33280;-79
2022/09/07 11:58:54;;;;;;;8.10;5.47;;;;;;;29.63;41.70;99611.81;4489668;31;33885;-78
2022/09/07 12:01:33;;;;;;;9.07;5.15;;;;;;;29.69;41.72;99615.75;4490697;31;33313;-80
2022/09/07 12:04:15;;;;;;;8.60;5.65;;;;;;;29.79;41.63;99613.91;4479407;31;34884;-79
2022/09/07 12:06:54;;;;;;;8.80;6.00;;;;;;;29.92;42.13;99613.59;4485377;31;33661;-81